sensor_id;sensor_type;location;lat;lon;timestamp;temperature;humidity
55648;DHT22;45266;48.756;9.246;2023-12-04T00:02:15;-7.30;94.00
55648;DHT22;45266;48.756;9.246;2023-12-04T00:07:17;-7.30;94.20
55648;DHT22;45266;48.756;9.246;2023-12-04T00:12:19;-7.30;94.60
55648;DHT22;45266;48.756;9.246;2023-12-04T00:17:22;-7.30;94.50
55648;DHT22;45266;48.756;9.246;2023-12-04T00:22:24;-7.30;94.70
55648;DHT22;45266;48.756;9.246;2023-12-04T00:27:26;-7.30;94.90
55648;DHT22;45266;48.756;9.246;2023-12-04T00:32:29;-7.30;94.50
55648;DHT22;45266;48.756;9.246;2023-12-04T00:37:31;-7.20;94.90
55648;DHT22;45266;48.756;9.246;2023-12-04T00:42:32;-7.30;94.70
55648;DHT22;45266;48.756;9.246;2023-12-04T00:47:34;-7.30;94.40
55648;DHT22;45266;48.756;9.246;2023-12-04T00:52:36;-7.30;94.40
55648;DHT22;45266;48.756;9.246;2023-12-04T00:57:39;-7.40;94.00
55648;DHT22;45266;48.756;9.246;2023-12-04T01:02:40;-7.40;94.40
55648;DHT22;45266;48.756;9.246;2023-12-04T01:07:42;-7.30;94.50
55648;DHT22;45266;48.756;9.246;2023-12-04T01:12:44;-7.30;94.90
55648;DHT22;45266;48.756;9.246;2023-12-04T01:17:46;-7.20;94.80
55648;DHT22;45266;48.756;9.246;2023-12-04T01:22:48;-7.30;94.10
55648;DHT22;45266;48.756;9.246;2023-12-04T01:27:50;-7.40;93.50
55648;DHT22;45266;48.756;9.246;2023-12-04T01:32:52;-7.50;93.70
55648;DHT22;45266;48.756;9.246;2023-12-04T01:37:54;-7.50;93.90
55648;DHT22;45266;48.756;9.246;2023-12-04T01:42:56;-7.50;94.50
55648;DHT22;45266;48.756;9.246;2023-12-04T01:47:58;-7.40;94.70
55648;DHT22;45266;48.756;9.246;2023-12-04T01:53:01;-7.30;95.30
55648;DHT22;45266;48.756;9.246;2023-12-04T01:58:03;-7.30;95.10
55648;DHT22;45266;48.756;9.246;2023-12-04T02:03:07;-7.30;95.10
55648;DHT22;45266;48.756;9.246;2023-12-04T02:08:09;-7.10;95.60
55648;DHT22;45266;48.756;9.246;2023-12-04T02:13:12;-7.10;95.50
55648;DHT22;45266;48.756;9.246;2023-12-04T02:18:14;-7.00;95.70
55648;DHT22;45266;48.756;9.246;2023-12-04T02:23:16;-7.00;95.20
55648;DHT22;45266;48.756;9.246;2023-12-04T02:28:19;-7.00;95.10
55648;DHT22;45266;48.756;9.246;2023-12-04T02:33:23;-6.90;95.10
55648;DHT22;45266;48.756;9.246;2023-12-04T02:38:26;-7.00;94.50
55648;DHT22;45266;48.756;9.246;2023-12-04T02:43:28;-7.10;93.80
55648;DHT22;45266;48.756;9.246;2023-12-04T02:48:30;-7.30;94.10
55648;DHT22;45266;48.756;9.246;2023-12-04T02:53:32;-7.40;94.00
55648;DHT22;45266;48.756;9.246;2023-12-04T02:58:34;-7.40;94.30
55648;DHT22;45266;48.756;9.246;2023-12-04T03:03:36;-7.40;94.70
55648;DHT22;45266;48.756;9.246;2023-12-04T03:08:38;-7.40;94.80
55648;DHT22;45266;48.756;9.246;2023-12-04T03:13:39;-7.30;95.30
55648;DHT22;45266;48.756;9.246;2023-12-04T03:18:41;-7.10;95.30
55648;DHT22;45266;48.756;9.246;2023-12-04T03:23:43;-7.20;94.80
55648;DHT22;45266;48.756;9.246;2023-12-04T03:28:45;-7.10;94.90
55648;DHT22;45266;48.756;9.246;2023-12-04T03:33:46;-7.10;94.40
55648;DHT22;45266;48.756;9.246;2023-12-04T03:38:48;-7.10;94.30
55648;DHT22;45266;48.756;9.246;2023-12-04T03:43:51;-7.30;94.30
55648;DHT22;45266;48.756;9.246;2023-12-04T03:48:52;-7.30;94.40
55648;DHT22;45266;48.756;9.246;2023-12-04T03:53:55;-7.30;94.80
55648;DHT22;45266;48.756;9.246;2023-12-04T03:58:56;-7.20;95.40
55648;DHT22;45266;48.756;9.246;2023-12-04T04:03:58;-7.10;95.90
55648;DHT22;45266;48.756;9.246;2023-12-04T04:09:00;-7.10;95.60
55648;DHT22;45266;48.756;9.246;2023-12-04T04:14:02;-7.10;95.50
55648;DHT22;45266;48.756;9.246;2023-12-04T04:19:04;-7.10;95.50
55648;DHT22;45266;48.756;9.246;2023-12-04T04:24:07;-7.00;95.80
55648;DHT22;45266;48.756;9.246;2023-12-04T04:29:09;-6.90;96.10
55648;DHT22;45266;48.756;9.246;2023-12-04T04:34:11;-6.90;95.90
55648;DHT22;45266;48.756;9.246;2023-12-04T04:39:13;-6.70;96.10
55648;DHT22;45266;48.756;9.246;2023-12-04T04:44:15;-6.60;96.10
55648;DHT22;45266;48.756;9.246;2023-12-04T04:49:17;-6.70;95.70
55648;DHT22;45266;48.756;9.246;2023-12-04T04:54:19;-6.70;95.40
55648;DHT22;45266;48.756;9.246;2023-12-04T04:59:21;-6.60;95.70
55648;DHT22;45266;48.756;9.246;2023-12-04T05:04:23;-6.50;96.10
55648;DHT22;45266;48.756;9.246;2023-12-04T05:09:26;-6.50;96.10
55648;DHT22;45266;48.756;9.246;2023-12-04T05:14:28;-6.50;95.70
55648;DHT22;45266;48.756;9.246;2023-12-04T05:19:30;-6.50;95.70
55648;DHT22;45266;48.756;9.246;2023-12-04T05:24:33;-6.40;96.10
55648;DHT22;45266;48.756;9.246;2023-12-04T05:29:35;-6.40;96.10
55648;DHT22;45266;48.756;9.246;2023-12-04T05:34:36;-6.40;95.80
55648;DHT22;45266;48.756;9.246;2023-12-04T05:39:38;-6.40;95.80
55648;DHT22;45266;48.756;9.246;2023-12-04T05:44:41;-6.40;95.50
55648;DHT22;45266;48.756;9.246;2023-12-04T05:49:42;-6.40;95.40
55648;DHT22;45266;48.756;9.246;2023-12-04T05:54:45;-6.30;95.20
55648;DHT22;45266;48.756;9.246;2023-12-04T05:59:46;-6.10;94.20
55648;DHT22;45266;48.756;9.246;2023-12-04T06:04:48;-6.00;93.10
55648;DHT22;45266;48.756;9.246;2023-12-04T06:09:50;-5.80;91.80
55648;DHT22;45266;48.756;9.246;2023-12-04T06:14:52;-5.80;91.20
55648;DHT22;45266;48.756;9.246;2023-12-04T06:19:54;-6.00;91.50
55648;DHT22;45266;48.756;9.246;2023-12-04T06:24:56;-6.00;92.20
55648;DHT22;45266;48.756;9.246;2023-12-04T06:29:58;-6.00;92.30
55648;DHT22;45266;48.756;9.246;2023-12-04T06:35:00;-6.10;92.90
55648;DHT22;45266;48.756;9.246;2023-12-04T06:40:02;-6.00;93.50
55648;DHT22;45266;48.756;9.246;2023-12-04T06:45:05;-6.10;93.70
55648;DHT22;45266;48.756;9.246;2023-12-04T06:50:07;-6.10;93.90
55648;DHT22;45266;48.756;9.246;2023-12-04T06:55:09;-6.00;94.10
55648;DHT22;45266;48.756;9.246;2023-12-04T07:00:11;-6.10;94.00
55648;DHT22;45266;48.756;9.246;2023-12-04T07:05:23;-6.00;94.10
55648;DHT22;45266;48.756;9.246;2023-12-04T07:10:25;-6.00;94.00
55648;DHT22;45266;48.756;9.246;2023-12-04T07:15:26;-6.10;93.90
55648;DHT22;45266;48.756;9.246;2023-12-04T07:20:28;-6.00;94.20
55648;DHT22;45266;48.756;9.246;2023-12-04T07:25:30;-6.00;94.60
55648;DHT22;45266;48.756;9.246;2023-12-04T07:30:32;-5.90;94.90
55648;DHT22;45266;48.756;9.246;2023-12-04T07:35:34;-5.80;94.80
55648;DHT22;45266;48.756;9.246;2023-12-04T07:40:35;-5.60;94.90
55648;DHT22;45266;48.756;9.246;2023-12-04T07:45:37;-5.60;94.70
55648;DHT22;45266;48.756;9.246;2023-12-04T07:50:39;-5.50;94.40
55648;DHT22;45266;48.756;9.246;2023-12-04T07:55:41;-5.50;93.90
55648;DHT22;45266;48.756;9.246;2023-12-04T08:00:47;-5.40;94.10
55648;DHT22;45266;48.756;9.246;2023-12-04T08:05:52;-5.30;93.70
55648;DHT22;45266;48.756;9.246;2023-12-04T08:10:54;-5.20;93.50
55648;DHT22;45266;48.756;9.246;2023-12-04T08:15:56;-5.10;93.80
55648;DHT22;45266;48.756;9.246;2023-12-04T08:21:00;-4.90;93.50
55648;DHT22;45266;48.756;9.246;2023-12-04T08:26:02;-4.70;93.50
55648;DHT22;45266;48.756;9.246;2023-12-04T08:31:05;-4.60;92.30
55648;DHT22;45266;48.756;9.246;2023-12-04T08:36:10;-4.60;92.30
55648;DHT22;45266;48.756;9.246;2023-12-04T08:41:13;-4.40;91.60
55648;DHT22;45266;48.756;9.246;2023-12-04T08:46:14;-4.30;90.60
55648;DHT22;45266;48.756;9.246;2023-12-04T08:51:17;-4.20;89.00
55648;DHT22;45266;48.756;9.246;2023-12-04T08:56:19;-4.10;87.60
55648;DHT22;45266;48.756;9.246;2023-12-04T09:01:31;-3.90;87.20
55648;DHT22;45266;48.756;9.246;2023-12-04T09:06:34;-3.80;86.20
55648;DHT22;45266;48.756;9.246;2023-12-04T09:11:42;-3.80;85.20
55648;DHT22;45266;48.756;9.246;2023-12-04T09:16:45;-3.60;85.10
55648;DHT22;45266;48.756;9.246;2023-12-04T09:21:47;-3.60;84.50
55648;DHT22;45266;48.756;9.246;2023-12-04T09:26:52;-3.70;83.30
55648;DHT22;45266;48.756;9.246;2023-12-04T09:31:53;-3.80;83.70
55648;DHT22;45266;48.756;9.246;2023-12-04T09:36:55;-3.60;85.00
55648;DHT22;45266;48.756;9.246;2023-12-04T09:42:09;-3.60;85.80
55648;DHT22;45266;48.756;9.246;2023-12-04T09:47:11;-3.30;85.60
55648;DHT22;45266;48.756;9.246;2023-12-04T09:52:14;-3.20;84.60
55648;DHT22;45266;48.756;9.246;2023-12-04T09:57:16;-3.20;84.70
55648;DHT22;45266;48.756;9.246;2023-12-04T10:02:19;-3.30;84.50
55648;DHT22;45266;48.756;9.246;2023-12-04T10:07:21;-3.30;83.50
55648;DHT22;45266;48.756;9.246;2023-12-04T10:12:23;-3.30;83.30
55648;DHT22;45266;48.756;9.246;2023-12-04T10:17:33;-3.30;83.60
55648;DHT22;45266;48.756;9.246;2023-12-04T10:22:35;-3.30;83.80
55648;DHT22;45266;48.756;9.246;2023-12-04T10:27:37;-3.20;83.10
55648;DHT22;45266;48.756;9.246;2023-12-04T10:32:39;-3.10;83.70
55648;DHT22;45266;48.756;9.246;2023-12-04T10:37:41;-3.00;83.40
55648;DHT22;45266;48.756;9.246;2023-12-04T10:42:43;-3.00;83.00
55648;DHT22;45266;48.756;9.246;2023-12-04T10:47:46;-2.90;82.80
55648;DHT22;45266;48.756;9.246;2023-12-04T10:52:48;-2.80;82.30
55648;DHT22;45266;48.756;9.246;2023-12-04T10:57:51;-2.70;82.20
55648;DHT22;45266;48.756;9.246;2023-12-04T11:02:56;-2.60;82.10
55648;DHT22;45266;48.756;9.246;2023-12-04T11:08:00;-2.50;82.90
55648;DHT22;45266;48.756;9.246;2023-12-04T11:13:22;-2.30;83.00
55648;DHT22;45266;48.756;9.246;2023-12-04T11:18:27;-2.10;82.50
55648;DHT22;45266;48.756;9.246;2023-12-04T11:23:30;-1.90;82.40
55648;DHT22;45266;48.756;9.246;2023-12-04T11:28:34;-1.80;81.20
55648;DHT22;45266;48.756;9.246;2023-12-04T11:33:38;-1.80;80.70
55648;DHT22;45266;48.756;9.246;2023-12-04T11:38:46;-1.80;81.50
55648;DHT22;45266;48.756;9.246;2023-12-04T11:43:50;-1.80;81.50
55648;DHT22;45266;48.756;9.246;2023-12-04T11:48:55;-1.90;81.10
55648;DHT22;45266;48.756;9.246;2023-12-04T11:53:57;-1.90;81.40
55648;DHT22;45266;48.756;9.246;2023-12-04T11:59:03;-1.80;81.50
55648;DHT22;45266;48.756;9.246;2023-12-04T12:04:07;-1.80;81.50
55648;DHT22;45266;48.756;9.246;2023-12-04T12:09:10;-1.80;81.40
55648;DHT22;45266;48.756;9.246;2023-12-04T12:14:11;-1.80;81.20
55648;DHT22;45266;48.756;9.246;2023-12-04T12:19:14;-1.70;81.40
55648;DHT22;45266;48.756;9.246;2023-12-04T12:24:17;-1.60;81.60
55648;DHT22;45266;48.756;9.246;2023-12-04T12:29:20;-1.60;82.00
55648;DHT22;45266;48.756;9.246;2023-12-04T12:34:22;-1.50;82.30
55648;DHT22;45266;48.756;9.246;2023-12-04T12:39:23;-1.30;81.70
55648;DHT22;45266;48.756;9.246;2023-12-04T12:44:26;-1.30;81.20
55648;DHT22;45266;48.756;9.246;2023-12-04T12:49:29;-1.30;81.00
55648;DHT22;45266;48.756;9.246;2023-12-04T12:54:43;-1.30;81.00
55648;DHT22;45266;48.756;9.246;2023-12-04T12:59:45;-1.30;80.60
55648;DHT22;45266;48.756;9.246;2023-12-04T13:04:46;-1.30;80.60
55648;DHT22;45266;48.756;9.246;2023-12-04T13:09:49;-1.30;81.40
55648;DHT22;45266;48.756;9.246;2023-12-04T13:14:51;-1.30;82.40
55648;DHT22;45266;48.756;9.246;2023-12-04T13:19:53;-1.20;82.90
55648;DHT22;45266;48.756;9.246;2023-12-04T13:24:55;-1.10;83.30
55648;DHT22;45266;48.756;9.246;2023-12-04T13:29:57;-1.10;82.40
55648;DHT22;45266;48.756;9.246;2023-12-04T13:34:59;-1.10;82.70
55648;DHT22;45266;48.756;9.246;2023-12-04T13:40:01;-1.10;82.50
55648;DHT22;45266;48.756;9.246;2023-12-04T13:45:08;-1.10;81.50
55648;DHT22;45266;48.756;9.246;2023-12-04T13:50:11;-1.10;80.90
55648;DHT22;45266;48.756;9.246;2023-12-04T13:55:13;-1.20;80.70
55648;DHT22;45266;48.756;9.246;2023-12-04T14:00:22;-1.30;80.60
55648;DHT22;45266;48.756;9.246;2023-12-04T14:05:24;-1.20;81.10
55648;DHT22;45266;48.756;9.246;2023-12-04T14:10:27;-1.30;81.50
55648;DHT22;45266;48.756;9.246;2023-12-04T14:15:29;-1.20;81.00
55648;DHT22;45266;48.756;9.246;2023-12-04T14:20:31;-1.30;80.70
55648;DHT22;45266;48.756;9.246;2023-12-04T14:25:33;-1.30;81.10
55648;DHT22;45266;48.756;9.246;2023-12-04T14:30:35;-1.30;81.50
55648;DHT22;45266;48.756;9.246;2023-12-04T14:35:37;-1.30;81.10
55648;DHT22;45266;48.756;9.246;2023-12-04T14:40:38;-1.30;80.70
55648;DHT22;45266;48.756;9.246;2023-12-04T14:45:41;-1.30;81.50
55648;DHT22;45266;48.756;9.246;2023-12-04T14:50:42;-1.30;81.20
55648;DHT22;45266;48.756;9.246;2023-12-04T14:55:44;-1.30;82.10
55648;DHT22;45266;48.756;9.246;2023-12-04T15:01:06;-1.20;82.40
55648;DHT22;45266;48.756;9.246;2023-12-04T15:06:27;-1.10;82.30
55648;DHT22;45266;48.756;9.246;2023-12-04T15:11:35;-1.20;82.10
55648;DHT22;45266;48.756;9.246;2023-12-04T15:16:37;-1.30;82.90
55648;DHT22;45266;48.756;9.246;2023-12-04T15:21:49;-1.20;82.90
55648;DHT22;45266;48.756;9.246;2023-12-04T15:26:51;-1.20;82.50
55648;DHT22;45266;48.756;9.246;2023-12-04T15:31:53;-1.30;83.70
55648;DHT22;45266;48.756;9.246;2023-12-04T15:36:55;-1.30;84.50
55648;DHT22;45266;48.756;9.246;2023-12-04T15:41:57;-1.30;84.80
55648;DHT22;45266;48.756;9.246;2023-12-04T15:46:58;-1.20;85.20
55648;DHT22;45266;48.756;9.246;2023-12-04T15:52:02;-1.10;85.00
55648;DHT22;45266;48.756;9.246;2023-12-04T15:57:05;-1.10;84.60
55648;DHT22;45266;48.756;9.246;2023-12-04T16:02:07;-1.10;85.60
55648;DHT22;45266;48.756;9.246;2023-12-04T16:07:10;-1.10;86.00
55648;DHT22;45266;48.756;9.246;2023-12-04T16:12:11;-1.20;86.50
55648;DHT22;45266;48.756;9.246;2023-12-04T16:17:13;-1.10;86.80
55648;DHT22;45266;48.756;9.246;2023-12-04T16:22:15;-1.20;87.30
55648;DHT22;45266;48.756;9.246;2023-12-04T16:27:18;-1.20;87.90
55648;DHT22;45266;48.756;9.246;2023-12-04T16:32:19;-1.10;88.70
55648;DHT22;45266;48.756;9.246;2023-12-04T16:37:22;-1.10;88.60
55648;DHT22;45266;48.756;9.246;2023-12-04T16:42:23;-1.00;88.50
55648;DHT22;45266;48.756;9.246;2023-12-04T16:47:26;-1.10;88.60
55648;DHT22;45266;48.756;9.246;2023-12-04T16:52:28;-1.10;89.20
55648;DHT22;45266;48.756;9.246;2023-12-04T16:57:29;-1.10;89.50
55648;DHT22;45266;48.756;9.246;2023-12-04T17:02:31;-1.10;89.20
55648;DHT22;45266;48.756;9.246;2023-12-04T17:07:33;-1.00;88.00
55648;DHT22;45266;48.756;9.246;2023-12-04T17:12:36;-1.00;87.80
55648;DHT22;45266;48.756;9.246;2023-12-04T17:17:45;-0.80;87.70
55648;DHT22;45266;48.756;9.246;2023-12-04T17:22:47;-0.90;88.30
55648;DHT22;45266;48.756;9.246;2023-12-04T17:27:51;-1.00;89.10
55648;DHT22;45266;48.756;9.246;2023-12-04T17:32:53;-1.00;89.90
55648;DHT22;45266;48.756;9.246;2023-12-04T17:37:55;-1.10;90.90
55648;DHT22;45266;48.756;9.246;2023-12-04T17:42:57;-1.10;90.50
55648;DHT22;45266;48.756;9.246;2023-12-04T17:47:59;-1.10;89.80
55648;DHT22;45266;48.756;9.246;2023-12-04T17:53:02;-1.10;88.40
55648;DHT22;45266;48.756;9.246;2023-12-04T17:58:04;-1.20;88.20
55648;DHT22;45266;48.756;9.246;2023-12-04T18:03:06;-1.30;88.40
55648;DHT22;45266;48.756;9.246;2023-12-04T18:08:11;-1.50;89.30
55648;DHT22;45266;48.756;9.246;2023-12-04T18:13:13;-1.60;89.70
55648;DHT22;45266;48.756;9.246;2023-12-04T18:18:15;-1.70;90.60
55648;DHT22;45266;48.756;9.246;2023-12-04T18:23:19;-1.80;91.20
55648;DHT22;45266;48.756;9.246;2023-12-04T18:28:21;-1.90;92.00
55648;DHT22;45266;48.756;9.246;2023-12-04T18:33:23;-2.10;92.50
55648;DHT22;45266;48.756;9.246;2023-12-04T18:38:36;-2.10;92.60
55648;DHT22;45266;48.756;9.246;2023-12-04T18:43:40;-2.10;92.90
55648;DHT22;45266;48.756;9.246;2023-12-04T18:48:43;-2.20;93.10
55648;DHT22;45266;48.756;9.246;2023-12-04T18:53:46;-2.20;93.30
55648;DHT22;45266;48.756;9.246;2023-12-04T18:58:47;-2.20;93.50
55648;DHT22;45266;48.756;9.246;2023-12-04T19:03:49;-2.20;93.60
55648;DHT22;45266;48.756;9.246;2023-12-04T19:08:51;-2.20;94.00
55648;DHT22;45266;48.756;9.246;2023-12-04T19:13:53;-2.10;93.90
55648;DHT22;45266;48.756;9.246;2023-12-04T19:18:55;-2.10;94.00
55648;DHT22;45266;48.756;9.246;2023-12-04T19:23:57;-2.10;94.00
55648;DHT22;45266;48.756;9.246;2023-12-04T19:29:00;-2.10;94.10
55648;DHT22;45266;48.756;9.246;2023-12-04T19:34:01;-2.10;94.10
55648;DHT22;45266;48.756;9.246;2023-12-04T19:39:03;-2.10;94.30
55648;DHT22;45266;48.756;9.246;2023-12-04T19:44:05;-2.10;94.40
55648;DHT22;45266;48.756;9.246;2023-12-04T19:49:08;-2.10;94.40
55648;DHT22;45266;48.756;9.246;2023-12-04T19:54:13;-2.10;94.50
55648;DHT22;45266;48.756;9.246;2023-12-04T19:59:14;-2.10;95.00
55648;DHT22;45266;48.756;9.246;2023-12-04T20:04:17;-2.10;95.20
55648;DHT22;45266;48.756;9.246;2023-12-04T20:09:19;-2.10;95.40
55648;DHT22;45266;48.756;9.246;2023-12-04T20:14:20;-2.00;95.40
55648;DHT22;45266;48.756;9.246;2023-12-04T20:19:22;-1.90;95.30
55648;DHT22;45266;48.756;9.246;2023-12-04T20:24:24;-2.00;95.40
55648;DHT22;45266;48.756;9.246;2023-12-04T20:29:26;-1.90;95.80
55648;DHT22;45266;48.756;9.246;2023-12-04T20:34:28;-1.80;95.70
55648;DHT22;45266;48.756;9.246;2023-12-04T20:39:31;-1.80;95.90
55648;DHT22;45266;48.756;9.246;2023-12-04T20:44:33;-1.80;96.20
55648;DHT22;45266;48.756;9.246;2023-12-04T20:49:38;-1.70;96.20
55648;DHT22;45266;48.756;9.246;2023-12-04T20:54:39;-1.70;96.40
55648;DHT22;45266;48.756;9.246;2023-12-04T20:59:41;-1.60;96.30
55648;DHT22;45266;48.756;9.246;2023-12-04T21:04:43;-1.50;96.70
55648;DHT22;45266;48.756;9.246;2023-12-04T21:09:45;-1.40;96.80
55648;DHT22;45266;48.756;9.246;2023-12-04T21:14:47;-1.30;97.00
55648;DHT22;45266;48.756;9.246;2023-12-04T21:19:49;-1.30;97.00
55648;DHT22;45266;48.756;9.246;2023-12-04T21:24:52;-1.10;97.30
55648;DHT22;45266;48.756;9.246;2023-12-04T21:29:53;-1.10;97.20
55648;DHT22;45266;48.756;9.246;2023-12-04T21:34:56;-1.00;97.30
55648;DHT22;45266;48.756;9.246;2023-12-04T21:39:58;-0.90;97.80
55648;DHT22;45266;48.756;9.246;2023-12-04T21:45:00;-0.80;98.00
55648;DHT22;45266;48.756;9.246;2023-12-04T21:50:02;-0.80;98.10
55648;DHT22;45266;48.756;9.246;2023-12-04T21:55:04;-0.70;98.40
55648;DHT22;45266;48.756;9.246;2023-12-04T22:00:07;-0.70;98.60
55648;DHT22;45266;48.756;9.246;2023-12-04T22:05:10;-0.70;98.50
55648;DHT22;45266;48.756;9.246;2023-12-04T22:10:12;-0.60;98.60
55648;DHT22;45266;48.756;9.246;2023-12-04T22:15:14;-0.60;98.60
55648;DHT22;45266;48.756;9.246;2023-12-04T22:20:16;-0.50;98.90
55648;DHT22;45266;48.756;9.246;2023-12-04T22:25:17;-0.50;98.80
55648;DHT22;45266;48.756;9.246;2023-12-04T22:30:22;-0.50;98.80
55648;DHT22;45266;48.756;9.246;2023-12-04T22:35:24;-0.50;98.70
55648;DHT22;45266;48.756;9.246;2023-12-04T22:40:27;-0.50;98.80
55648;DHT22;45266;48.756;9.246;2023-12-04T22:45:29;-0.50;98.90
55648;DHT22;45266;48.756;9.246;2023-12-04T22:50:31;-0.40;98.80
55648;DHT22;45266;48.756;9.246;2023-12-04T22:55:33;-0.40;98.70
55648;DHT22;45266;48.756;9.246;2023-12-04T23:00:35;-0.50;98.50
55648;DHT22;45266;48.756;9.246;2023-12-04T23:05:42;-0.50;98.70
55648;DHT22;45266;48.756;9.246;2023-12-04T23:10:44;-0.40;98.60
55648;DHT22;45266;48.756;9.246;2023-12-04T23:15:45;-0.50;98.90
55648;DHT22;45266;48.756;9.246;2023-12-04T23:20:48;-0.40;98.90
55648;DHT22;45266;48.756;9.246;2023-12-04T23:25:49;-0.30;98.60
55648;DHT22;45266;48.756;9.246;2023-12-04T23:30:51;-0.30;98.60
55648;DHT22;45266;48.756;9.246;2023-12-04T23:35:53;-0.40;98.50
55648;DHT22;45266;48.756;9.246;2023-12-04T23:40:56;-0.40;98.60
55648;DHT22;45266;48.756;9.246;2023-12-04T23:45:58;-0.30;98.60
55648;DHT22;45266;48.756;9.246;2023-12-04T23:51:00;-0.30;98.60
55648;DHT22;45266;48.756;9.246;2023-12-04T23:56:02;-0.30;98.40
